createdAt,value
2024-02-03T00:02:00.571Z,9.49
2024-02-03T00:04:31.642Z,9.49
2024-02-03T00:07:05.013Z,9.50
2024-02-03T00:09:36.186Z,9.51
2024-02-03T00:12:11.915Z,9.52
2024-02-03T00:14:42.848Z,9.53
2024-02-03T00:17:13.172Z,9.44
2024-02-03T00:19:43.936Z,9.56
2024-02-03T00:22:16.820Z,9.59
2024-02-03T00:24:47.488Z,9.61
2024-02-03T00:27:18.290Z,9.65
2024-02-03T00:29:49.237Z,9.62
2024-02-03T00:32:19.982Z,9.67
2024-02-03T00:34:50.625Z,9.71
2024-02-03T00:37:24.010Z,9.71
2024-02-03T00:39:54.256Z,9.56
2024-02-03T00:42:24.884Z,9.70
2024-02-03T00:44:55.339Z,9.62
2024-02-03T00:47:25.652Z,9.67
2024-02-03T00:49:59.100Z,9.78
2024-02-03T00:52:33.704Z,9.78
2024-02-03T00:55:05.691Z,9.78
2024-02-03T00:57:35.725Z,9.77
2024-02-03T01:00:08.197Z,9.80
2024-02-03T01:02:38.352Z,9.75
2024-02-03T01:05:09.172Z,9.70
2024-02-03T01:07:41.831Z,9.77
2024-02-03T01:10:13.548Z,9.81
2024-02-03T01:12:44.301Z,9.84
2024-02-03T01:15:14.776Z,9.77
2024-02-03T01:17:45.380Z,9.85
2024-02-03T01:20:16.992Z,9.82
2024-02-03T01:22:49.712Z,9.82
2024-02-03T01:25:20.385Z,9.72
2024-02-03T01:27:51.251Z,9.83
2024-02-03T01:30:22.459Z,9.81
2024-02-03T01:32:52.882Z,9.84
2024-02-03T01:35:24.193Z,9.86
2024-02-03T01:37:57.790Z,9.88
2024-02-03T01:40:28.228Z,9.82
2024-02-03T01:43:01.992Z,9.90
2024-02-03T01:45:41.603Z,9.90
2024-02-03T01:48:14.924Z,9.84
2024-02-03T01:50:50.213Z,9.90
2024-02-03T01:53:24.248Z,9.90
2024-02-03T01:55:57.343Z,9.89
2024-02-03T01:58:27.744Z,9.90
2024-02-03T02:00:59.582Z,9.86
2024-02-03T02:03:30.252Z,9.94
2024-02-03T02:06:00.542Z,9.94
2024-02-03T02:08:41.933Z,9.86
2024-02-03T02:11:13.960Z,9.96
2024-02-03T02:13:44.440Z,10.02
2024-02-03T02:16:14.941Z,10.03
2024-02-03T02:18:45.823Z,10.05
2024-02-03T02:21:20.499Z,10.00
2024-02-03T02:23:52.413Z,9.96
2024-02-03T02:26:22.655Z,10.05
2024-02-03T02:28:53.112Z,9.97
2024-02-03T02:31:23.275Z,9.94
2024-02-03T02:33:56.200Z,10.08
2024-02-03T02:36:30.264Z,10.10
2024-02-03T02:39:00.878Z,9.97
2024-02-03T02:41:34.396Z,10.07
2024-02-03T02:44:04.350Z,10.06
2024-02-03T02:46:34.533Z,9.94
2024-02-03T02:49:09.519Z,9.99
2024-02-03T02:51:42.513Z,9.82
2024-02-03T02:54:13.029Z,9.83
2024-02-03T02:56:43.285Z,9.77
2024-02-03T02:59:13.893Z,9.70
2024-02-03T03:01:44.525Z,9.63
2024-02-03T03:04:15.301Z,9.66
2024-02-03T03:06:48.320Z,9.50
2024-02-03T03:09:18.317Z,9.56
2024-02-03T03:11:48.456Z,9.52
2024-02-03T03:14:21.586Z,9.41
2024-02-03T03:16:52.584Z,9.33
2024-02-03T03:19:22.741Z,9.43
2024-02-03T03:21:55.727Z,9.41
2024-02-03T03:24:25.602Z,9.34
2024-02-03T03:26:55.982Z,9.06
2024-02-03T03:29:25.981Z,9.31
2024-02-03T03:31:56.283Z,9.32
2024-02-03T03:34:26.454Z,9.33
2024-02-03T03:36:59.602Z,9.32
2024-02-03T03:39:29.861Z,9.37
2024-02-03T03:41:59.960Z,9.33
2024-02-03T03:44:33.050Z,9.32
2024-02-03T03:47:00.815Z,9.30
2024-02-03T03:49:34.233Z,9.30
2024-02-03T03:52:08.037Z,9.27
2024-02-03T03:54:38.312Z,9.27
2024-02-03T03:57:08.337Z,9.27
2024-02-03T03:59:38.563Z,9.26
2024-02-03T04:02:09.308Z,9.26
2024-02-03T04:04:41.312Z,9.08
2024-02-03T04:07:13.894Z,9.21
2024-02-03T04:09:50.237Z,9.15
2024-02-03T04:12:20.668Z,9.19
2024-02-03T04:14:53.293Z,9.23
2024-02-03T04:17:23.882Z,9.21
2024-02-03T04:19:54.028Z,9.26
2024-02-03T04:22:27.410Z,9.27
2024-02-03T04:24:58.257Z,9.30
2024-02-03T04:27:28.458Z,9.32
2024-02-03T04:29:58.502Z,9.33
2024-02-03T04:32:28.598Z,9.41
2024-02-03T04:34:58.506Z,9.44
2024-02-03T04:37:31.908Z,9.42
2024-02-03T04:40:05.097Z,9.46
2024-02-03T04:42:35.714Z,9.41
2024-02-03T04:45:06.382Z,9.39
2024-02-03T04:47:37.536Z,9.40
2024-02-03T04:50:08.808Z,9.43
2024-02-03T04:52:42.379Z,9.40
2024-02-03T04:55:12.552Z,9.44
2024-02-03T04:57:42.634Z,9.42
2024-02-03T05:00:14.654Z,9.41
2024-02-03T05:02:45.023Z,9.37
2024-02-03T05:05:14.901Z,9.31
2024-02-03T05:07:47.810Z,9.37
2024-02-03T05:10:17.908Z,9.36
2024-02-03T05:12:47.892Z,9.39
2024-02-03T05:15:20.063Z,9.32
2024-02-03T05:17:50.466Z,9.34
2024-02-03T05:20:20.892Z,9.34
2024-02-03T05:22:54.929Z,9.34
2024-02-03T05:25:24.968Z,9.32
2024-02-03T05:27:55.103Z,9.19
2024-02-03T05:30:25.585Z,9.22
2024-02-03T05:32:55.734Z,9.27
2024-02-03T05:35:25.691Z,9.27
2024-02-03T05:37:58.300Z,9.27
2024-02-03T05:40:28.764Z,9.25
2024-02-03T05:42:59.832Z,9.22
2024-02-03T05:45:30.116Z,9.28
2024-02-03T05:48:00.320Z,9.20
2024-02-03T05:50:30.286Z,9.28
2024-02-03T05:53:04.579Z,9.29
2024-02-03T05:55:35.583Z,9.33
2024-02-03T05:58:05.738Z,9.28
2024-02-03T06:00:35.813Z,9.32
2024-02-03T06:03:05.839Z,9.39
2024-02-03T06:05:41.602Z,9.43
2024-02-03T06:08:21.393Z,9.44
2024-02-03T06:10:53.423Z,9.41
2024-02-03T06:13:24.255Z,9.46
2024-02-03T06:15:54.733Z,9.42
2024-02-03T06:18:25.058Z,9.50
2024-02-03T06:20:56.335Z,9.47
2024-02-03T06:23:28.923Z,9.56
2024-02-03T06:25:58.913Z,9.59
2024-02-03T06:28:31.674Z,9.61
2024-02-03T06:31:01.843Z,9.62
2024-02-03T06:33:31.975Z,9.59
2024-02-03T06:36:02.638Z,9.71
2024-02-03T06:38:36.970Z,9.53
2024-02-03T06:41:07.187Z,9.72
2024-02-03T06:43:41.684Z,9.71
2024-02-03T06:46:11.647Z,9.64
2024-02-03T06:48:41.593Z,9.70
2024-02-03T06:51:12.242Z,9.69
2024-02-03T06:53:44.963Z,9.71
2024-02-03T06:56:15.046Z,9.69
2024-02-03T06:58:45.094Z,9.64
2024-02-03T07:01:15.468Z,9.67
2024-02-03T07:03:45.998Z,9.64
2024-02-03T07:06:16.188Z,9.63
2024-02-03T07:08:50.231Z,9.61
2024-02-03T07:11:20.353Z,9.61
2024-02-03T07:13:51.076Z,9.50
2024-02-03T07:16:21.218Z,9.57
2024-02-03T07:18:51.191Z,9.60
2024-02-03T07:21:21.597Z,9.61
2024-02-03T07:23:54.559Z,9.62
2024-02-03T07:26:24.727Z,9.62
2024-02-03T07:28:55.246Z,9.62
2024-02-03T07:31:33.330Z,9.71
2024-02-03T07:34:03.911Z,9.52
2024-02-03T07:36:38.579Z,9.77
2024-02-03T07:39:11.344Z,9.68
2024-02-03T07:41:41.556Z,9.81
2024-02-03T07:44:11.707Z,9.83
2024-02-03T07:46:42.478Z,9.72
2024-02-03T07:49:12.854Z,9.61
2024-02-03T07:51:43.542Z,9.83
2024-02-03T07:54:16.294Z,9.82
2024-02-03T07:56:46.468Z,9.87
2024-02-03T07:59:16.623Z,9.85
2024-02-03T08:01:48.340Z,9.85
2024-02-03T08:04:18.537Z,9.91
2024-02-03T08:06:48.782Z,9.99
2024-02-03T08:09:21.535Z,9.68
2024-02-03T08:11:52.502Z,9.96
2024-02-03T08:14:22.505Z,9.97
2024-02-03T08:16:52.653Z,10.00
2024-02-03T08:19:23.214Z,9.98
2024-02-03T08:21:53.737Z,10.05
2024-02-03T08:24:26.678Z,9.96
2024-02-03T08:26:57.467Z,10.08
2024-02-03T08:29:27.482Z,10.05
2024-02-03T08:32:09.234Z,10.10
2024-02-03T08:34:39.310Z,10.06
2024-02-03T08:37:09.215Z,10.12
2024-02-03T08:42:11.722Z,10.16
2024-02-03T08:44:41.543Z,10.20
2024-02-03T08:47:13.922Z,10.22
2024-02-03T08:49:53.952Z,10.23
2024-02-03T08:52:24.044Z,10.26
2024-02-03T08:54:54.165Z,10.25
2024-02-03T08:57:24.109Z,10.18
2024-02-03T08:59:54.409Z,10.16
2024-02-03T09:02:26.903Z,10.17
2024-02-03T09:04:56.700Z,10.18
2024-02-03T09:07:26.505Z,10.17
2024-02-03T09:09:57.823Z,10.16
2024-02-03T09:12:28.506Z,10.14
2024-02-03T09:14:58.609Z,10.16
2024-02-03T09:17:31.342Z,10.15
2024-02-03T09:20:01.305Z,10.19
2024-02-03T09:22:31.177Z,10.20
2024-02-03T09:25:01.222Z,10.24
2024-02-03T09:27:31.414Z,10.24
2024-02-03T09:30:01.330Z,10.16
2024-02-03T09:32:33.789Z,10.18
2024-02-03T09:35:04.208Z,10.21
2024-02-03T09:40:09.016Z,10.06
2024-02-03T09:42:40.156Z,10.04
2024-02-03T09:45:10.879Z,10.11
2024-02-03T09:47:43.967Z,10.16
2024-02-03T09:50:14.236Z,10.15
2024-02-03T09:52:46.428Z,10.16
2024-02-03T09:55:17.596Z,10.21
2024-02-03T09:57:50.487Z,10.29
2024-02-03T10:00:22.480Z,10.16
2024-02-03T10:02:54.905Z,10.15
2024-02-03T10:05:32.001Z,10.19
2024-02-03T10:08:07.526Z,10.23
2024-02-03T10:13:13.366Z,10.40
2024-02-03T10:15:43.684Z,10.34
2024-02-03T10:18:17.070Z,10.41
2024-02-03T10:20:47.310Z,10.44
2024-02-03T10:23:17.512Z,10.40
2024-02-03T10:25:48.994Z,10.39
2024-02-03T10:28:19.590Z,10.35
2024-02-03T10:30:50.227Z,10.34
2024-02-03T10:33:22.753Z,10.33
2024-02-03T10:35:53.373Z,10.29
2024-02-03T10:38:23.187Z,10.45
2024-02-03T10:40:53.398Z,10.44
2024-02-03T10:43:24.809Z,10.45
2024-02-03T10:45:56.775Z,10.39
2024-02-03T10:48:30.158Z,10.49
2024-02-03T10:51:05.810Z,10.47
2024-02-03T10:53:38.810Z,10.49
2024-02-03T10:56:13.184Z,10.51
2024-02-03T10:58:43.739Z,10.55
2024-02-03T11:01:19.239Z,10.53
2024-02-03T11:03:54.128Z,10.63
2024-02-03T11:06:28.062Z,10.62
2024-02-03T11:09:13.740Z,10.65
2024-02-03T11:11:44.854Z,10.48
2024-02-03T11:14:16.586Z,10.70
2024-02-03T11:16:46.897Z,10.73
2024-02-03T11:19:19.520Z,10.71
2024-02-03T11:21:49.614Z,10.70
2024-02-03T11:24:19.418Z,10.64
2024-02-03T11:26:58.368Z,10.58
2024-02-03T11:29:28.846Z,10.43
2024-02-03T11:32:02.437Z,10.41
2024-02-03T11:34:37.149Z,10.38
2024-02-03T11:37:10.422Z,10.32
2024-02-03T11:39:41.931Z,10.34
2024-02-03T11:42:12.817Z,10.24
2024-02-03T11:44:54.654Z,10.41
2024-02-03T11:47:25.660Z,10.46
2024-02-03T11:49:58.503Z,10.57
2024-02-03T11:52:28.763Z,10.56
2024-02-03T11:54:58.565Z,10.62
2024-02-03T11:57:28.936Z,10.61
2024-02-03T12:00:03.823Z,10.63
2024-02-03T12:02:35.295Z,10.67
2024-02-03T12:05:13.117Z,10.70
2024-02-03T12:07:45.417Z,10.54
2024-02-03T12:10:17.077Z,10.74
2024-02-03T12:12:47.197Z,10.75
2024-02-03T12:15:17.576Z,10.74
2024-02-03T12:17:50.324Z,10.75
2024-02-03T12:20:32.162Z,10.77
2024-02-03T12:23:02.269Z,10.79
2024-02-03T12:25:32.439Z,10.80
2024-02-03T12:28:03.018Z,10.77
2024-02-03T12:30:37.269Z,10.84
2024-02-03T12:33:08.625Z,10.92
2024-02-03T12:35:41.581Z,10.92
2024-02-03T12:38:12.054Z,10.98
2024-02-03T12:40:41.879Z,11.05
2024-02-03T12:43:11.750Z,10.99
2024-02-03T12:45:41.808Z,10.89
2024-02-03T12:48:11.854Z,10.89
2024-02-03T12:50:44.942Z,10.90
2024-02-03T12:53:15.594Z,10.95
2024-02-03T12:55:46.873Z,10.92
2024-02-03T12:58:17.976Z,10.96
2024-02-03T13:00:48.168Z,11.03
2024-02-03T13:03:18.161Z,11.06
2024-02-03T13:05:50.844Z,11.17
2024-02-03T13:08:21.203Z,11.27
2024-02-03T13:10:51.063Z,11.37
2024-02-03T13:13:20.837Z,11.48
2024-02-03T13:15:50.845Z,11.48
2024-02-03T13:18:20.759Z,11.58
2024-02-03T13:20:53.709Z,11.60
2024-02-03T13:23:23.593Z,11.77
2024-02-03T13:25:53.421Z,11.73
2024-02-03T13:28:23.221Z,11.66
2024-02-03T13:30:53.162Z,11.73
2024-02-03T13:33:23.071Z,11.71
2024-02-03T13:35:56.384Z,11.66
2024-02-03T13:38:26.489Z,11.55
2024-02-03T13:40:56.492Z,11.54
2024-02-03T13:43:26.270Z,11.58
2024-02-03T13:45:56.099Z,11.89
2024-02-03T13:48:26.464Z,11.78
2024-02-03T13:50:59.661Z,11.74
2024-02-03T13:53:29.695Z,11.73
2024-02-03T13:56:01.365Z,11.89
2024-02-03T13:58:31.171Z,11.83
2024-02-03T14:01:01.288Z,11.91
2024-02-03T14:03:31.824Z,11.86
2024-02-03T14:06:04.424Z,11.75
2024-02-03T14:08:34.537Z,11.66
2024-02-03T14:11:04.291Z,11.67
2024-02-03T14:13:34.310Z,11.62
2024-02-03T14:16:04.378Z,11.59
2024-02-03T14:18:34.487Z,11.49
2024-02-03T14:21:07.158Z,11.45
2024-02-03T14:23:37.280Z,11.44
2024-02-03T14:26:07.766Z,11.43
2024-02-03T14:28:37.594Z,11.36
2024-02-03T14:31:07.982Z,11.22
2024-02-03T14:33:38.154Z,11.13
2024-02-03T14:36:11.152Z,11.10
2024-02-03T14:38:42.748Z,11.08
2024-02-03T14:41:12.710Z,11.08
2024-02-03T14:43:43.600Z,11.14
2024-02-03T14:46:13.417Z,11.09
2024-02-03T14:48:43.396Z,11.17
2024-02-03T14:51:16.085Z,11.21
2024-02-03T14:53:45.885Z,11.21
2024-02-03T14:56:15.746Z,11.26
2024-02-03T14:58:45.544Z,11.23
2024-02-03T15:01:15.492Z,11.29
2024-02-03T15:03:45.592Z,11.27
2024-02-03T15:06:18.397Z,11.27
2024-02-03T15:08:48.490Z,11.24
2024-02-03T15:11:18.640Z,11.23
2024-02-03T15:13:48.426Z,11.24
2024-02-03T15:16:18.297Z,11.24
2024-02-03T15:18:48.349Z,11.20
2024-02-03T15:21:20.953Z,11.26
2024-02-03T15:23:50.798Z,11.18
2024-02-03T15:26:21.420Z,11.13
2024-02-03T15:28:51.327Z,11.09
2024-02-03T15:31:21.343Z,11.06
2024-02-03T15:33:51.368Z,11.03
2024-02-03T15:36:24.420Z,11.02
2024-02-03T15:38:54.340Z,10.96
2024-02-03T15:41:24.228Z,10.87
2024-02-03T15:43:54.121Z,10.76
2024-02-03T15:46:33.551Z,10.68
2024-02-03T15:49:10.053Z,10.63
2024-02-03T15:51:42.892Z,10.59
2024-02-03T15:54:12.944Z,10.63
2024-02-03T15:56:43.312Z,10.62
2024-02-03T15:59:15.267Z,10.61
2024-02-03T16:01:45.325Z,10.59
2024-02-03T16:04:15.427Z,10.63
2024-02-03T16:06:48.038Z,10.63
2024-02-03T16:09:18.083Z,10.56
2024-02-03T16:11:48.629Z,10.53
2024-02-03T16:14:18.801Z,10.42
2024-02-03T16:16:48.997Z,10.30
2024-02-03T16:19:19.433Z,10.17
2024-02-03T16:21:52.062Z,10.11
2024-02-03T16:24:21.978Z,10.07
2024-02-03T16:26:52.234Z,10.07
2024-02-03T16:29:22.291Z,10.04
2024-02-03T16:31:52.094Z,10.01
2024-02-03T16:34:23.187Z,9.99
2024-02-03T16:36:55.835Z,10.01
2024-02-03T16:39:27.453Z,10.00
2024-02-03T16:41:57.593Z,9.99
2024-02-03T16:44:27.400Z,10.01
2024-02-03T16:46:57.234Z,9.99
2024-02-03T16:49:27.265Z,10.00
2024-02-03T16:52:00.909Z,9.98
2024-02-03T16:54:31.001Z,9.99
2024-02-03T16:57:00.782Z,10.00
2024-02-03T16:59:30.723Z,10.01
2024-02-03T17:02:00.687Z,10.11
2024-02-03T17:04:30.709Z,10.06
2024-02-03T17:07:03.202Z,10.04
2024-02-03T17:09:34.026Z,10.05
2024-02-03T17:12:04.002Z,10.02
2024-02-03T17:14:34.394Z,10.04
2024-02-03T17:17:04.189Z,10.04
2024-02-03T17:19:34.193Z,10.03
2024-02-03T17:22:07.153Z,10.03
2024-02-03T17:24:37.109Z,10.04
2024-02-03T17:27:07.433Z,10.05
2024-02-03T17:29:37.191Z,10.05
2024-02-03T17:32:07.677Z,10.06
2024-02-03T17:34:39.267Z,10.12
2024-02-03T17:37:11.936Z,10.08
2024-02-03T17:39:41.828Z,10.08
2024-02-03T17:42:11.670Z,10.13
2024-02-03T17:44:41.629Z,10.12
2024-02-03T17:47:12.127Z,10.10
2024-02-03T17:49:42.253Z,10.11
2024-02-03T17:52:14.759Z,10.12
2024-02-03T17:54:48.213Z,10.11
2024-02-03T17:57:18.415Z,10.06
2024-02-03T17:59:48.407Z,10.03
2024-02-03T18:02:19.974Z,9.94
2024-02-03T18:04:49.919Z,9.96
2024-02-03T18:07:22.801Z,9.96
2024-02-03T18:09:53.245Z,10.01
2024-02-03T18:12:23.150Z,10.03
2024-02-03T18:14:53.030Z,10.05
2024-02-03T18:17:22.941Z,10.06
2024-02-03T18:19:52.890Z,10.15
2024-02-03T18:22:25.510Z,10.18
2024-02-03T18:24:55.469Z,10.29
2024-02-03T18:27:25.609Z,10.30
2024-02-03T18:29:55.534Z,10.29
2024-02-03T18:32:25.627Z,10.28
2024-02-03T18:34:55.428Z,10.20
2024-02-03T18:37:27.862Z,10.29
2024-02-03T18:39:57.944Z,10.33
2024-02-03T18:42:27.757Z,10.35
2024-02-03T18:44:58.046Z,10.38
2024-02-03T18:47:27.913Z,10.39
2024-02-03T18:49:57.806Z,10.34
2024-02-03T18:52:31.158Z,10.31
2024-02-03T18:55:01.133Z,10.31
2024-02-03T18:57:31.687Z,10.26
2024-02-03T19:00:01.472Z,10.28
2024-02-03T19:02:31.489Z,10.28
2024-02-03T19:05:02.044Z,10.29
2024-02-03T19:07:34.780Z,10.32
2024-02-03T19:10:04.997Z,10.35
2024-02-03T19:12:34.952Z,10.35
2024-02-03T19:15:06.045Z,10.31
2024-02-03T19:17:39.598Z,10.20
2024-02-03T19:20:12.523Z,10.17
2024-02-03T19:22:44.982Z,10.18
2024-02-03T19:25:15.037Z,10.16
2024-02-03T19:27:45.111Z,10.13
2024-02-03T19:30:17.130Z,10.13
2024-02-03T19:32:48.035Z,10.00
2024-02-03T19:35:18.656Z,10.12
2024-02-03T19:37:51.064Z,10.18
2024-02-03T19:40:21.740Z,10.18
2024-02-03T19:42:51.614Z,10.17
2024-02-03T19:45:21.663Z,10.20
2024-02-03T19:47:51.532Z,10.22
2024-02-03T19:50:24.733Z,10.27
2024-02-03T19:52:59.124Z,10.30
2024-02-03T19:55:29.139Z,10.28
2024-02-03T19:57:59.144Z,10.17
2024-02-03T20:00:29.469Z,10.11
2024-02-03T20:02:59.265Z,10.10
2024-02-03T20:05:29.164Z,10.08
2024-02-03T20:08:02.202Z,10.08
2024-02-03T20:10:33.787Z,10.11
2024-02-03T20:13:05.044Z,10.13
2024-02-03T20:15:34.968Z,10.21
2024-02-03T20:18:05.122Z,10.26
2024-02-03T20:20:35.425Z,10.24
2024-02-03T20:23:07.916Z,10.22
2024-02-03T20:25:38.704Z,10.20
2024-02-03T20:28:09.084Z,10.29
2024-02-03T20:30:39.137Z,10.32
2024-02-03T20:33:09.130Z,10.36
2024-02-03T20:35:39.173Z,10.41
2024-02-03T20:38:12.153Z,10.38
2024-02-03T20:40:45.510Z,10.42
2024-02-03T20:43:19.147Z,10.37
2024-02-03T20:45:51.893Z,10.27
2024-02-03T20:48:22.301Z,10.33
2024-02-03T20:50:52.495Z,10.28
2024-02-03T20:53:25.235Z,10.25
2024-02-03T20:55:55.515Z,10.26
2024-02-03T20:58:25.532Z,10.18
2024-02-03T21:00:55.545Z,10.15
2024-02-03T21:03:25.961Z,10.06
2024-02-03T21:05:56.170Z,10.04
2024-02-03T21:08:28.799Z,10.00
2024-02-03T21:10:58.963Z,9.97
2024-02-03T21:13:29.671Z,9.89
2024-02-03T21:15:59.600Z,9.87
2024-02-03T21:18:29.690Z,9.92
2024-02-03T21:20:59.740Z,9.85
2024-02-03T21:23:32.289Z,9.78
2024-02-03T21:26:02.083Z,9.73
2024-02-03T21:28:31.891Z,9.73
2024-02-03T21:31:01.842Z,9.73
2024-02-03T21:33:31.734Z,9.69
2024-02-03T21:36:01.696Z,9.65
2024-02-03T21:38:34.435Z,9.62
2024-02-03T21:41:04.480Z,9.67
2024-02-03T21:43:34.336Z,9.67
2024-02-03T21:46:04.765Z,9.72
2024-02-03T21:48:36.165Z,9.56
2024-02-03T21:51:06.153Z,9.73
2024-02-03T21:53:38.580Z,9.83
2024-02-03T21:56:08.986Z,9.81
2024-02-03T21:58:38.924Z,9.75
2024-02-03T22:01:08.900Z,9.76
2024-02-03T22:03:39.280Z,9.78
2024-02-03T22:06:10.320Z,9.78
2024-02-03T22:08:42.710Z,9.71
2024-02-03T22:11:12.856Z,9.70
2024-02-03T22:13:42.943Z,9.70
2024-02-03T22:16:12.910Z,9.72
2024-02-03T22:18:42.760Z,9.76
2024-02-03T22:21:12.660Z,9.78
2024-02-03T22:23:45.514Z,9.69
2024-02-03T22:26:15.461Z,9.83
2024-02-03T22:28:45.352Z,9.85
2024-02-03T22:31:15.108Z,9.82
2024-02-03T22:33:44.995Z,9.78
2024-02-03T22:36:15.134Z,9.81
2024-02-03T22:38:47.527Z,9.80
2024-02-03T22:41:17.473Z,9.83
2024-02-03T22:43:47.324Z,9.86
2024-02-03T22:46:17.919Z,9.86
2024-02-03T22:48:48.065Z,9.86
2024-02-03T22:51:18.014Z,9.87
2024-02-03T22:53:50.422Z,9.83
2024-02-03T22:56:20.252Z,9.84
2024-02-03T22:58:50.186Z,9.80
2024-02-03T23:01:20.095Z,9.79
2024-02-03T23:03:50.150Z,9.78
2024-02-03T23:06:20.037Z,9.73
2024-02-03T23:08:53.639Z,9.72
2024-02-03T23:11:23.892Z,9.71
2024-02-03T23:13:53.690Z,9.69
2024-02-03T23:16:23.600Z,9.68
2024-02-03T23:18:53.514Z,9.68
2024-02-03T23:21:24.381Z,9.55
2024-02-03T23:23:56.994Z,9.53
2024-02-03T23:26:27.081Z,9.50
2024-02-03T23:28:57.248Z,9.47
2024-02-03T23:31:28.117Z,9.49
2024-02-03T23:33:59.324Z,9.51
2024-02-03T23:36:30.003Z,9.50
2024-02-03T23:39:03.447Z,9.48
2024-02-03T23:41:33.247Z,9.49
2024-02-03T23:44:04.936Z,9.57
2024-02-03T23:46:35.577Z,9.58
2024-02-03T23:49:06.537Z,9.59
2024-02-03T23:51:36.410Z,9.63
2024-02-03T23:54:10.039Z,9.62
2024-02-03T23:56:40.208Z,9.61
2024-02-03T23:59:10.058Z,9.60
